• Join FlightAware (Why Join?)
  • Login
  • US Flag 
08:04PM EDT


 

Airport Tracker/Info


-or-


 

Live Flight TrackerFlight Track Log ✈ ASQ4348 ✈ 23-Apr-2013 ✈ KEWR - CYUL

Flight Track Log - Related Links

Times and Time Zones

All times are in EDT time to prevent confusion due to time zone crossing. See the ASQ4348 flight status page for this flight to view local times or setup timezone preferences in your user account.

Time Position Orientation Groundspeed Altitude Reporting Facility
EDT Latitude Longitude Course Direction KTS MPH feet Rate Location/Type
10:46AM 40.7167 -74.1500 27° Northeast 165 190 1,900  Level New York TRACON
10:47AM 40.7667 -74.1167 27° Northeast 235 270 4,000 2,460 Climbing New York TRACON
10:47AM 40.8333 -74.0833 21° North 262 302 6,700 2,820 Climbing New York TRACON
10:49AM 40.8833 -74.0000 52° Northeast 272 313 9,700 1,560 Climbing New York TRACON
10:50AM 40.9706 -73.8283 56° Northeast 338 389 11,000 1,140 Climbing Boston Center
10:51AM 41.0486 -73.7475 38° Northeast 349 402 12,800 1,740 Climbing Boston Center
10:52AM 41.1328 -73.6636 37° Northeast 366 421 14,500 1,800 Climbing Boston Center
10:53AM 41.2172 -73.5769 38° Northeast 379 436 16,400 1,740 Climbing Boston Center
10:54AM 41.3033 -73.4900 37° Northeast 386 444 18,000 1,260 Climbing Boston Center
10:55AM 41.3833 -73.4139 36° Northeast 391 450 19,000 1,140 Climbing Boston Center
10:56AM 41.4736 -73.3239 37° Northeast 391 450 20,300 1,080 Climbing Boston Center
10:57AM 41.5664 -73.2031 44° Northeast 397 457 21,400 1,020 Climbing Boston Center
10:58AM 41.6939 -73.1183 26° Northeast 415 478 22,600 1,080 Climbing Boston Center
10:59AM 41.8208 -73.1394 353° North 408 470 23,600 960 Climbing Boston Center
11:00AM 41.9439 -73.1631 352° North 426 490 24,600 660 Climbing Boston Center
11:01AM 42.0728 -73.1842 353° North 450 518 25,000 180 Climbing Boston Center
11:02AM 42.2061 -73.2108 352° North 466 536 25,000  Level Boston Center
11:03AM 42.3392 -73.2322 353° North 478 550 25,000  Level Boston Center
11:04AM 42.4600 -73.2422 357° North 487 560 25,000  Level Boston Center
11:05AM 42.6100 -73.2781 350° North 487 560 25,000  Level Boston Center
11:06AM 42.7431 -73.3022 352° North 487 560 25,000  Level Boston Center
11:07AM 42.8764 -73.3269 352° North 487 560 25,000  Level Boston Center
11:08AM 43.0117 -73.3486 353° North 482 555 25,000  Level Boston Center
11:09AM 43.1428 -73.3619 356° North 482 555 25,000  Level Boston Center
11:10AM 43.2697 -73.3725 357° North 477 549 25,000  Level Boston Center
11:11AM 43.3761 -73.3856 355° North 472 543 25,000  Level Boston Center
11:12AM 43.5364 -73.4022 356° North 478 550 25,000  Level Boston Center
11:13AM 43.6675 -73.4131 357° North 478 550 25,000  Level Boston Center
11:14AM 43.7986 -73.4294 355° North 478 550 25,000  Level Boston Center
11:15AM 43.9297 -73.4433 356° North 478 550 25,000  Level Boston Center
11:17AM 44.0881 -73.4603 356° North 478 550 25,000  Level Boston Center
11:18AM 44.2192 -73.4742 356° North 478 550 25,000 -120 Level Boston Center
11:19AM 44.3461 -73.4881 356° North 471 542 24,800 -1,320 Descending Boston Center
11:20AM 44.4689 -73.4989 356° North 461 531 22,400 -2,280 Descending Boston Center
11:21AM 44.5917 -73.5128 355° North 442 509 20,300 -2,040 Descending Boston Center
11:22AM 44.7061 -73.5294 354° North 428 493 18,400 -1,200 Descending Boston Center
11:23AM 44.8206 -73.5403 356° North 415 478 18,000 -240 Descending Boston Center
11:24AM 44.9167 -73.5333 North 410 472 18,000 -1,080 Level Montreal Center
11:25AM 45.0333 -73.5500 354° North 390 449 15,900 -2,280 Descending Montreal Center
11:26AM 45.1333 -73.5667 353° North 370 426 13,500 -2,460 Descending Montreal Center
11:27AM 45.2333 -73.5833 353° North 320 368 11,000 -2,340 Descending Montreal Center
11:28AM 45.3000 -73.6333 332° Northwest 280 322 8,900 -2,100 Descending Montreal Center
11:29AM 45.2833 -73.7333 257° West 250 288 6,800 -2,280 Descending Montreal Center
11:30AM 45.2667 -73.8333 257° West 260 299 4,400 -1,800 Descending Montreal Center
11:31AM 45.2833 -73.9167 286° West 240 276 3,200 -780 Descending Montreal Center
11:32AM 45.3500 -73.9000 10° North 240 276 2,900 -840 Descending Montreal Center
11:33AM 45.4000 -73.8167 49° Northeast 220 253 1,600 -1,080 Descending Montreal Center
11:34AM 45.4333 -73.8000 19° North 160 184 800 -780 Descending Montreal Center
11:35AM 45.4500 -73.7500 65° Northeast 130 150 100 -360 Descending Montreal Center
11:36AM 45.4667 -73.7167 55° Northeast 20 23 100  Level Montreal Center